sensor_id;sensor_type;location;lat;lon;timestamp;P1;durP1;ratioP1;P2;durP2;ratioP2
13706;SDS011;6925;47.816;13.072;2022-11-27T00:01:09;4.95;;;2.60;;
13706;SDS011;6925;47.816;13.072;2022-11-27T00:03:37;5.72;;;2.55;;
13706;SDS011;6925;47.816;13.072;2022-11-27T00:06:05;4.95;;;2.78;;
13706;SDS011;6925;47.816;13.072;2022-11-27T00:08:37;4.43;;;2.22;;
13706;SDS011;6925;47.816;13.072;2022-11-27T00:13:33;5.32;;;2.47;;
13706;SDS011;6925;47.816;13.072;2022-11-27T00:16:01;5.32;;;2.30;;
13706;SDS011;6925;47.816;13.072;2022-11-27T00:18:28;3.65;;;2.05;;
13706;SDS011;6925;47.816;13.072;2022-11-27T00:21:00;4.60;;;1.90;;
13706;SDS011;6925;47.816;13.072;2022-11-27T00:23:30;4.45;;;2.42;;
13706;SDS011;6925;47.816;13.072;2022-11-27T00:25:58;3.90;;;2.03;;
13706;SDS011;6925;47.816;13.072;2022-11-27T00:28:25;4.63;;;2.05;;
13706;SDS011;6925;47.816;13.072;2022-11-27T00:30:52;3.95;;;1.83;;
13706;SDS011;6925;47.816;13.072;2022-11-27T00:33:23;3.70;;;2.20;;
13706;SDS011;6925;47.816;13.072;2022-11-27T00:35:51;4.25;;;2.20;;
13706;SDS011;6925;47.816;13.072;2022-11-27T00:38:18;3.97;;;2.08;;
13706;SDS011;6925;47.816;13.072;2022-11-27T00:40:47;3.83;;;2.00;;
13706;SDS011;6925;47.816;13.072;2022-11-27T00:43:14;3.78;;;1.90;;
13706;SDS011;6925;47.816;13.072;2022-11-27T00:45:41;4.63;;;2.20;;
13706;SDS011;6925;47.816;13.072;2022-11-27T00:48:09;5.05;;;2.47;;
13706;SDS011;6925;47.816;13.072;2022-11-27T00:50:37;4.40;;;2.20;;
13706;SDS011;6925;47.816;13.072;2022-11-27T00:53:05;4.40;;;2.03;;
13706;SDS011;6925;47.816;13.072;2022-11-27T00:55:32;4.53;;;2.50;;
13706;SDS011;6925;47.816;13.072;2022-11-27T00:58:01;4.57;;;2.15;;
13706;SDS011;6925;47.816;13.072;2022-11-27T01:00:28;3.70;;;1.95;;
13706;SDS011;6925;47.816;13.072;2022-11-27T01:02:55;3.90;;;1.98;;
13706;SDS011;6925;47.816;13.072;2022-11-27T01:05:22;5.68;;;1.98;;
13706;SDS011;6925;47.816;13.072;2022-11-27T01:07:50;3.95;;;2.13;;
13706;SDS011;6925;47.816;13.072;2022-11-27T01:10:17;5.13;;;2.03;;
13706;SDS011;6925;47.816;13.072;2022-11-27T01:12:47;3.60;;;1.75;;
13706;SDS011;6925;47.816;13.072;2022-11-27T01:15:16;3.95;;;1.63;;
13706;SDS011;6925;47.816;13.072;2022-11-27T01:17:43;4.65;;;1.88;;
13706;SDS011;6925;47.816;13.072;2022-11-27T01:20:11;4.13;;;2.20;;
13706;SDS011;6925;47.816;13.072;2022-11-27T01:25:05;3.50;;;1.60;;
13706;SDS011;6925;47.816;13.072;2022-11-27T01:27:34;4.03;;;1.90;;
13706;SDS011;6925;47.816;13.072;2022-11-27T01:30:01;4.13;;;2.17;;
13706;SDS011;6925;47.816;13.072;2022-11-27T01:34:57;4.28;;;1.75;;
13706;SDS011;6925;47.816;13.072;2022-11-27T01:37:24;4.07;;;2.17;;
13706;SDS011;6925;47.816;13.072;2022-11-27T01:39:51;3.83;;;1.65;;
13706;SDS011;6925;47.816;13.072;2022-11-27T01:42:19;2.85;;;1.63;;
13706;SDS011;6925;47.816;13.072;2022-11-27T01:44:50;3.95;;;1.92;;
13706;SDS011;6925;47.816;13.072;2022-11-27T01:47:26;4.43;;;2.08;;
13706;SDS011;6925;47.816;13.072;2022-11-27T01:50:05;4.13;;;2.03;;
13706;SDS011;6925;47.816;13.072;2022-11-27T01:52:40;4.50;;;2.33;;
13706;SDS011;6925;47.816;13.072;2022-11-27T01:55:12;4.13;;;1.83;;
13706;SDS011;6925;47.816;13.072;2022-11-27T01:57:45;4.50;;;2.03;;
13706;SDS011;6925;47.816;13.072;2022-11-27T02:00:15;5.35;;;2.10;;
13706;SDS011;6925;47.816;13.072;2022-11-27T02:02:45;4.07;;;1.85;;
13706;SDS011;6925;47.816;13.072;2022-11-27T02:05:13;3.70;;;1.63;;
13706;SDS011;6925;47.816;13.072;2022-11-27T02:07:42;5.53;;;2.10;;
13706;SDS011;6925;47.816;13.072;2022-11-27T02:10:10;3.08;;;1.45;;
13706;SDS011;6925;47.816;13.072;2022-11-27T02:12:39;4.90;;;1.85;;
13706;SDS011;6925;47.816;13.072;2022-11-27T02:15:15;3.78;;;1.98;;
13706;SDS011;6925;47.816;13.072;2022-11-27T02:17:49;4.25;;;1.83;;
13706;SDS011;6925;47.816;13.072;2022-11-27T02:20:25;4.55;;;2.22;;
13706;SDS011;6925;47.816;13.072;2022-11-27T02:23:05;3.67;;;1.85;;
13706;SDS011;6925;47.816;13.072;2022-11-27T02:25:56;4.97;;;2.03;;
13706;SDS011;6925;47.816;13.072;2022-11-27T02:28:57;3.97;;;1.80;;
13706;SDS011;6925;47.816;13.072;2022-11-27T02:31:28;4.80;;;2.40;;
13706;SDS011;6925;47.816;13.072;2022-11-27T02:34:05;4.70;;;2.28;;
13706;SDS011;6925;47.816;13.072;2022-11-27T02:36:38;5.07;;;2.20;;
13706;SDS011;6925;47.816;13.072;2022-11-27T02:39:10;5.22;;;1.85;;
13706;SDS011;6925;47.816;13.072;2022-11-27T02:41:45;5.28;;;2.13;;
13706;SDS011;6925;47.816;13.072;2022-11-27T02:44:19;5.32;;;2.60;;
13706;SDS011;6925;47.816;13.072;2022-11-27T02:46:48;6.47;;;2.60;;
13706;SDS011;6925;47.816;13.072;2022-11-27T02:51:45;4.47;;;2.05;;
13706;SDS011;6925;47.816;13.072;2022-11-27T02:54:16;5.07;;;2.13;;
13706;SDS011;6925;47.816;13.072;2022-11-27T02:56:49;7.38;;;2.55;;
13706;SDS011;6925;47.816;13.072;2022-11-27T02:59:20;5.95;;;2.42;;
13706;SDS011;6925;47.816;13.072;2022-11-27T03:01:51;5.25;;;2.70;;
13706;SDS011;6925;47.816;13.072;2022-11-27T03:04:23;4.18;;;1.83;;
13706;SDS011;6925;47.816;13.072;2022-11-27T03:06:56;4.78;;;2.22;;
13706;SDS011;6925;47.816;13.072;2022-11-27T03:09:28;5.07;;;2.47;;
13706;SDS011;6925;47.816;13.072;2022-11-27T03:11:59;4.97;;;2.53;;
13706;SDS011;6925;47.816;13.072;2022-11-27T03:14:29;7.28;;;2.67;;
13706;SDS011;6925;47.816;13.072;2022-11-27T03:16:58;6.20;;;2.28;;
13706;SDS011;6925;47.816;13.072;2022-11-27T03:19:35;4.90;;;2.38;;
13706;SDS011;6925;47.816;13.072;2022-11-27T03:22:08;4.72;;;2.30;;
13706;SDS011;6925;47.816;13.072;2022-11-27T03:24:36;5.57;;;2.17;;
13706;SDS011;6925;47.816;13.072;2022-11-27T03:27:04;5.40;;;2.30;;
13706;SDS011;6925;47.816;13.072;2022-11-27T03:29:34;4.13;;;2.13;;
13706;SDS011;6925;47.816;13.072;2022-11-27T03:32:05;7.22;;;2.88;;
13706;SDS011;6925;47.816;13.072;2022-11-27T03:37:00;4.65;;;2.38;;
13706;SDS011;6925;47.816;13.072;2022-11-27T03:39:28;4.47;;;2.10;;
13706;SDS011;6925;47.816;13.072;2022-11-27T03:41:59;4.85;;;1.80;;
13706;SDS011;6925;47.816;13.072;2022-11-27T03:44:38;7.00;;;2.38;;
13706;SDS011;6925;47.816;13.072;2022-11-27T03:47:11;5.82;;;2.60;;
13706;SDS011;6925;47.816;13.072;2022-11-27T03:49:53;4.72;;;2.20;;
13706;SDS011;6925;47.816;13.072;2022-11-27T03:52:33;5.60;;;2.47;;
13706;SDS011;6925;47.816;13.072;2022-11-27T03:57:36;3.58;;;1.70;;
13706;SDS011;6925;47.816;13.072;2022-11-27T04:00:10;4.18;;;1.95;;
13706;SDS011;6925;47.816;13.072;2022-11-27T04:02:39;4.95;;;1.88;;
13706;SDS011;6925;47.816;13.072;2022-11-27T04:05:08;3.75;;;1.98;;
13706;SDS011;6925;47.816;13.072;2022-11-27T04:10:03;4.78;;;1.75;;
13706;SDS011;6925;47.816;13.072;2022-11-27T04:12:31;4.00;;;2.08;;
13706;SDS011;6925;47.816;13.072;2022-11-27T04:14:58;3.53;;;1.65;;
13706;SDS011;6925;47.816;13.072;2022-11-27T04:17:27;5.05;;;1.80;;
13706;SDS011;6925;47.816;13.072;2022-11-27T04:19:54;3.03;;;1.42;;
13706;SDS011;6925;47.816;13.072;2022-11-27T04:22:22;3.15;;;1.50;;
13706;SDS011;6925;47.816;13.072;2022-11-27T04:24:49;3.75;;;1.55;;
13706;SDS011;6925;47.816;13.072;2022-11-27T04:27:17;3.45;;;1.58;;
13706;SDS011;6925;47.816;13.072;2022-11-27T04:29:44;2.58;;;1.23;;
13706;SDS011;6925;47.816;13.072;2022-11-27T04:32:11;3.22;;;1.30;;
13706;SDS011;6925;47.816;13.072;2022-11-27T04:34:40;2.53;;;1.20;;
13706;SDS011;6925;47.816;13.072;2022-11-27T04:37:07;3.13;;;1.63;;
13706;SDS011;6925;47.816;13.072;2022-11-27T04:39:34;4.28;;;1.83;;
13706;SDS011;6925;47.816;13.072;2022-11-27T04:42:02;3.50;;;1.70;;
13706;SDS011;6925;47.816;13.072;2022-11-27T04:44:29;5.85;;;1.98;;
13706;SDS011;6925;47.816;13.072;2022-11-27T04:46:56;3.45;;;1.50;;
13706;SDS011;6925;47.816;13.072;2022-11-27T04:49:23;3.60;;;1.50;;
13706;SDS011;6925;47.816;13.072;2022-11-27T04:51:52;3.50;;;1.52;;
13706;SDS011;6925;47.816;13.072;2022-11-27T04:54:19;3.28;;;1.50;;
13706;SDS011;6925;47.816;13.072;2022-11-27T04:56:47;2.97;;;1.20;;
13706;SDS011;6925;47.816;13.072;2022-11-27T04:59:14;3.20;;;1.63;;
13706;SDS011;6925;47.816;13.072;2022-11-27T05:01:41;3.13;;;1.52;;
13706;SDS011;6925;47.816;13.072;2022-11-27T05:04:08;4.45;;;1.80;;
13706;SDS011;6925;47.816;13.072;2022-11-27T05:06:36;3.10;;;1.63;;
13706;SDS011;6925;47.816;13.072;2022-11-27T05:09:04;3.50;;;1.58;;
13706;SDS011;6925;47.816;13.072;2022-11-27T05:11:32;3.15;;;1.38;;
13706;SDS011;6925;47.816;13.072;2022-11-27T05:13:59;3.20;;;1.33;;
13706;SDS011;6925;47.816;13.072;2022-11-27T05:16:40;4.53;;;1.50;;
13706;SDS011;6925;47.816;13.072;2022-11-27T05:21:35;3.13;;;1.40;;
13706;SDS011;6925;47.816;13.072;2022-11-27T05:24:05;3.20;;;1.40;;
13706;SDS011;6925;47.816;13.072;2022-11-27T05:26:33;3.33;;;1.50;;
13706;SDS011;6925;47.816;13.072;2022-11-27T05:29:00;3.40;;;1.35;;
13706;SDS011;6925;47.816;13.072;2022-11-27T05:36:22;2.65;;;1.27;;
13706;SDS011;6925;47.816;13.072;2022-11-27T05:38:49;3.78;;;1.40;;
13706;SDS011;6925;47.816;13.072;2022-11-27T05:41:18;3.80;;;1.05;;
13706;SDS011;6925;47.816;13.072;2022-11-27T05:43:45;3.85;;;1.60;;
13706;SDS011;6925;47.816;13.072;2022-11-27T05:46:13;2.75;;;1.20;;
13706;SDS011;6925;47.816;13.072;2022-11-27T05:48:43;3.10;;;1.48;;
13706;SDS011;6925;47.816;13.072;2022-11-27T05:51:10;2.33;;;1.23;;
13706;SDS011;6925;47.816;13.072;2022-11-27T05:53:37;2.22;;;1.10;;
13706;SDS011;6925;47.816;13.072;2022-11-27T05:56:06;2.47;;;1.10;;
13706;SDS011;6925;47.816;13.072;2022-11-27T05:58:36;2.53;;;1.15;;
13706;SDS011;6925;47.816;13.072;2022-11-27T06:01:05;2.88;;;1.20;;
13706;SDS011;6925;47.816;13.072;2022-11-27T06:03:33;5.13;;;1.42;;
13706;SDS011;6925;47.816;13.072;2022-11-27T06:06:04;9.52;;;3.80;;
13706;SDS011;6925;47.816;13.072;2022-11-27T06:08:32;2.42;;;1.17;;
13706;SDS011;6925;47.816;13.072;2022-11-27T06:10:59;3.00;;;1.15;;
13706;SDS011;6925;47.816;13.072;2022-11-27T06:13:31;3.42;;;1.23;;
13706;SDS011;6925;47.816;13.072;2022-11-27T06:15:59;3.97;;;1.92;;
13706;SDS011;6925;47.816;13.072;2022-11-27T06:18:31;5.10;;;1.70;;
13706;SDS011;6925;47.816;13.072;2022-11-27T06:20:59;3.35;;;1.55;;
13706;SDS011;6925;47.816;13.072;2022-11-27T06:23:26;2.85;;;1.30;;
13706;SDS011;6925;47.816;13.072;2022-11-27T06:25:53;2.47;;;1.10;;
13706;SDS011;6925;47.816;13.072;2022-11-27T06:28:21;3.45;;;1.23;;
13706;SDS011;6925;47.816;13.072;2022-11-27T06:30:48;3.30;;;1.40;;
13706;SDS011;6925;47.816;13.072;2022-11-27T06:33:17;3.70;;;1.33;;
13706;SDS011;6925;47.816;13.072;2022-11-27T06:35:44;3.15;;;1.45;;
13706;SDS011;6925;47.816;13.072;2022-11-27T06:38:12;2.92;;;1.38;;
13706;SDS011;6925;47.816;13.072;2022-11-27T06:40:39;2.90;;;1.40;;
13706;SDS011;6925;47.816;13.072;2022-11-27T06:51:25;3.30;;;1.23;;
13706;SDS011;6925;47.816;13.072;2022-11-27T06:57:06;5.53;;;1.60;;
13706;SDS011;6925;47.816;13.072;2022-11-27T06:59:37;5.43;;;2.28;;
13706;SDS011;6925;47.816;13.072;2022-11-27T07:02:09;4.72;;;2.60;;
13706;SDS011;6925;47.816;13.072;2022-11-27T07:04:50;5.22;;;2.60;;
13706;SDS011;6925;47.816;13.072;2022-11-27T07:10:16;4.78;;;1.80;;
13706;SDS011;6925;47.816;13.072;2022-11-27T07:12:44;3.22;;;1.65;;
13706;SDS011;6925;47.816;13.072;2022-11-27T07:17:39;3.45;;;1.23;;
13706;SDS011;6925;47.816;13.072;2022-11-27T07:23:12;3.33;;;1.83;;
13706;SDS011;6925;47.816;13.072;2022-11-27T07:25:42;2.78;;;1.30;;
13706;SDS011;6925;47.816;13.072;2022-11-27T07:28:09;4.50;;;2.10;;
13706;SDS011;6925;47.816;13.072;2022-11-27T07:30:37;5.05;;;2.60;;
13706;SDS011;6925;47.816;13.072;2022-11-27T07:33:04;3.42;;;1.85;;
13706;SDS011;6925;47.816;13.072;2022-11-27T07:35:31;3.08;;;1.42;;
13706;SDS011;6925;47.816;13.072;2022-11-27T07:38:00;4.68;;;1.75;;
13706;SDS011;6925;47.816;13.072;2022-11-27T07:40:40;2.72;;;1.35;;
13706;SDS011;6925;47.816;13.072;2022-11-27T07:43:07;4.53;;;1.30;;
13706;SDS011;6925;47.816;13.072;2022-11-27T07:45:34;2.80;;;1.55;;
13706;SDS011;6925;47.816;13.072;2022-11-27T07:48:01;2.72;;;1.40;;
13706;SDS011;6925;47.816;13.072;2022-11-27T07:50:29;3.67;;;1.73;;
13706;SDS011;6925;47.816;13.072;2022-11-27T07:52:57;5.63;;;2.53;;
13706;SDS011;6925;47.816;13.072;2022-11-27T07:55:25;4.57;;;2.03;;
13706;SDS011;6925;47.816;13.072;2022-11-27T07:57:53;4.43;;;1.60;;
13706;SDS011;6925;47.816;13.072;2022-11-27T08:00:31;3.90;;;1.90;;
13706;SDS011;6925;47.816;13.072;2022-11-27T08:03:08;3.45;;;1.90;;
13706;SDS011;6925;47.816;13.072;2022-11-27T08:05:36;6.00;;;2.60;;
13706;SDS011;6925;47.816;13.072;2022-11-27T08:08:03;3.65;;;1.83;;
13706;SDS011;6925;47.816;13.072;2022-11-27T08:10:33;4.25;;;2.15;;
13706;SDS011;6925;47.816;13.072;2022-11-27T08:13:01;3.55;;;1.65;;
13706;SDS011;6925;47.816;13.072;2022-11-27T08:15:28;3.05;;;1.70;;
13706;SDS011;6925;47.816;13.072;2022-11-27T08:17:55;3.75;;;1.98;;
13706;SDS011;6925;47.816;13.072;2022-11-27T08:20:23;3.35;;;1.80;;
13706;SDS011;6925;47.816;13.072;2022-11-27T08:22:50;3.90;;;1.95;;
13706;SDS011;6925;47.816;13.072;2022-11-27T08:25:18;4.15;;;1.92;;
13706;SDS011;6925;47.816;13.072;2022-11-27T08:27:46;2.92;;;1.48;;
13706;SDS011;6925;47.816;13.072;2022-11-27T08:30:14;3.85;;;1.63;;
13706;SDS011;6925;47.816;13.072;2022-11-27T08:32:41;4.47;;;1.80;;
13706;SDS011;6925;47.816;13.072;2022-11-27T08:35:09;4.93;;;2.05;;
13706;SDS011;6925;47.816;13.072;2022-11-27T08:37:37;3.30;;;1.73;;
13706;SDS011;6925;47.816;13.072;2022-11-27T08:40:05;5.00;;;2.55;;
13706;SDS011;6925;47.816;13.072;2022-11-27T08:42:33;4.07;;;2.20;;
13706;SDS011;6925;47.816;13.072;2022-11-27T08:45:01;4.35;;;2.25;;
13706;SDS011;6925;47.816;13.072;2022-11-27T08:47:29;4.78;;;2.25;;
13706;SDS011;6925;47.816;13.072;2022-11-27T08:49:57;6.60;;;2.80;;
13706;SDS011;6925;47.816;13.072;2022-11-27T08:52:24;17.00;;;7.35;;
13706;SDS011;6925;47.816;13.072;2022-11-27T08:54:52;12.05;;;5.82;;
13706;SDS011;6925;47.816;13.072;2022-11-27T08:57:19;11.80;;;5.30;;
13706;SDS011;6925;47.816;13.072;2022-11-27T08:59:47;11.02;;;4.40;;
13706;SDS011;6925;47.816;13.072;2022-11-27T09:02:16;10.25;;;5.28;;
13706;SDS011;6925;47.816;13.072;2022-11-27T09:04:43;12.25;;;4.88;;
13706;SDS011;6925;47.816;13.072;2022-11-27T09:07:13;7.97;;;4.53;;
13706;SDS011;6925;47.816;13.072;2022-11-27T09:09:41;7.95;;;4.43;;
13706;SDS011;6925;47.816;13.072;2022-11-27T09:14:35;6.47;;;3.33;;
13706;SDS011;6925;47.816;13.072;2022-11-27T09:19:31;5.53;;;2.78;;
13706;SDS011;6925;47.816;13.072;2022-11-27T09:21:59;10.38;;;2.72;;
13706;SDS011;6925;47.816;13.072;2022-11-27T09:24:26;13.15;;;2.63;;
13706;SDS011;6925;47.816;13.072;2022-11-27T09:26:53;11.93;;;2.47;;
13706;SDS011;6925;47.816;13.072;2022-11-27T09:29:37;5.47;;;2.22;;
13706;SDS011;6925;47.816;13.072;2022-11-27T10:02:59;2.80;;;1.40;;
13706;SDS011;6925;47.816;13.072;2022-11-27T10:05:27;3.30;;;1.58;;
13706;SDS011;6925;47.816;13.072;2022-11-27T10:08:15;6.22;;;2.83;;
13706;SDS011;6925;47.816;13.072;2022-11-27T10:10:55;3.95;;;2.15;;
13706;SDS011;6925;47.816;13.072;2022-11-27T10:13:37;3.88;;;2.30;;
13706;SDS011;6925;47.816;13.072;2022-11-27T10:16:12;4.80;;;1.88;;
13706;SDS011;6925;47.816;13.072;2022-11-27T10:18:50;4.80;;;2.00;;
13706;SDS011;6925;47.816;13.072;2022-11-27T10:21:23;2.85;;;1.40;;
13706;SDS011;6925;47.816;13.072;2022-11-27T10:23:58;2.95;;;1.40;;
13706;SDS011;6925;47.816;13.072;2022-11-27T10:26:33;4.20;;;1.70;;
13706;SDS011;6925;47.816;13.072;2022-11-27T10:29:09;3.50;;;1.50;;
13706;SDS011;6925;47.816;13.072;2022-11-27T10:31:44;3.00;;;1.40;;
13706;SDS011;6925;47.816;13.072;2022-11-27T10:34:23;3.38;;;1.50;;
13706;SDS011;6925;47.816;13.072;2022-11-27T10:36:55;3.42;;;1.70;;
13706;SDS011;6925;47.816;13.072;2022-11-27T10:39:27;6.28;;;2.15;;
13706;SDS011;6925;47.816;13.072;2022-11-27T10:42:02;8.50;;;4.68;;
13706;SDS011;6925;47.816;13.072;2022-11-27T10:44:36;4.05;;;1.83;;
13706;SDS011;6925;47.816;13.072;2022-11-27T10:47:07;7.63;;;2.78;;
13706;SDS011;6925;47.816;13.072;2022-11-27T10:49:38;21.33;;;9.32;;
13706;SDS011;6925;47.816;13.072;2022-11-27T10:52:09;9.23;;;4.00;;
13706;SDS011;6925;47.816;13.072;2022-11-27T10:54:40;15.48;;;9.45;;
13706;SDS011;6925;47.816;13.072;2022-11-27T11:00:09;4.57;;;2.08;;
13706;SDS011;6925;47.816;13.072;2022-11-27T11:02:40;3.17;;;1.40;;
13706;SDS011;6925;47.816;13.072;2022-11-27T11:05:10;6.05;;;2.70;;
13706;SDS011;6925;47.816;13.072;2022-11-27T11:07:38;3.00;;;1.40;;
13706;SDS011;6925;47.816;13.072;2022-11-27T11:12:47;3.70;;;1.85;;
13706;SDS011;6925;47.816;13.072;2022-11-27T11:17:41;3.00;;;1.60;;
13706;SDS011;6925;47.816;13.072;2022-11-27T11:20:18;3.53;;;1.83;;
13706;SDS011;6925;47.816;13.072;2022-11-27T11:22:48;3.30;;;1.75;;
13706;SDS011;6925;47.816;13.072;2022-11-27T11:25:17;3.55;;;2.13;;
13706;SDS011;6925;47.816;13.072;2022-11-27T11:27:46;4.25;;;2.30;;
13706;SDS011;6925;47.816;13.072;2022-11-27T11:30:19;3.58;;;1.80;;
13706;SDS011;6925;47.816;13.072;2022-11-27T11:32:50;5.85;;;3.42;;
13706;SDS011;6925;47.816;13.072;2022-11-27T11:35:27;6.85;;;3.50;;
13706;SDS011;6925;47.816;13.072;2022-11-27T11:37:59;6.00;;;3.30;;
13706;SDS011;6925;47.816;13.072;2022-11-27T11:40:30;5.05;;;3.20;;
13706;SDS011;6925;47.816;13.072;2022-11-27T11:43:05;6.85;;;3.25;;
13706;SDS011;6925;47.816;13.072;2022-11-27T11:45:49;6.93;;;3.55;;
13706;SDS011;6925;47.816;13.072;2022-11-27T11:48:19;7.40;;;3.72;;
13706;SDS011;6925;47.816;13.072;2022-11-27T11:50:52;10.98;;;5.35;;
13706;SDS011;6925;47.816;13.072;2022-11-27T11:53:38;10.20;;;5.43;;
13706;SDS011;6925;47.816;13.072;2022-11-27T11:56:15;11.55;;;6.07;;
13706;SDS011;6925;47.816;13.072;2022-11-27T11:58:53;13.23;;;5.88;;
13706;SDS011;6925;47.816;13.072;2022-11-27T12:11:14;10.23;;;5.53;;
13706;SDS011;6925;47.816;13.072;2022-11-27T12:13:54;9.80;;;5.63;;
13706;SDS011;6925;47.816;13.072;2022-11-27T12:16:34;13.02;;;6.53;;
13706;SDS011;6925;47.816;13.072;2022-11-27T12:22:29;12.45;;;5.30;;
13706;SDS011;6925;47.816;13.072;2022-11-27T12:25:20;8.95;;;4.63;;
13706;SDS011;6925;47.816;13.072;2022-11-27T12:28:10;8.48;;;4.50;;
13706;SDS011;6925;47.816;13.072;2022-11-27T12:31:04;7.13;;;4.10;;
13706;SDS011;6925;47.816;13.072;2022-11-27T12:37:59;11.10;;;5.97;;
13706;SDS011;6925;47.816;13.072;2022-11-27T12:40:45;12.52;;;6.05;;
13706;SDS011;6925;47.816;13.072;2022-11-27T12:43:22;14.18;;;6.95;;
13706;SDS011;6925;47.816;13.072;2022-11-27T12:45:59;13.13;;;6.05;;
13706;SDS011;6925;47.816;13.072;2022-11-27T12:48:32;8.85;;;4.78;;
13706;SDS011;6925;47.816;13.072;2022-11-27T12:54:08;11.63;;;5.30;;
13706;SDS011;6925;47.816;13.072;2022-11-27T12:56:48;20.13;;;7.15;;
13706;SDS011;6925;47.816;13.072;2022-11-27T12:59:24;17.45;;;7.82;;
13706;SDS011;6925;47.816;13.072;2022-11-27T13:01:58;13.10;;;7.43;;
13706;SDS011;6925;47.816;13.072;2022-11-27T13:04:31;19.35;;;7.60;;
13706;SDS011;6925;47.816;13.072;2022-11-27T13:07:05;19.95;;;7.38;;
13706;SDS011;6925;47.816;13.072;2022-11-27T13:09:38;15.75;;;6.88;;
13706;SDS011;6925;47.816;13.072;2022-11-27T13:12:16;10.68;;;5.50;;
13706;SDS011;6925;47.816;13.072;2022-11-27T13:22:01;11.80;;;5.82;;
13706;SDS011;6925;47.816;13.072;2022-11-27T13:24:38;13.80;;;6.15;;
13706;SDS011;6925;47.816;13.072;2022-11-27T13:27:12;16.08;;;7.95;;
13706;SDS011;6925;47.816;13.072;2022-11-27T13:29:50;16.38;;;9.02;;
13706;SDS011;6925;47.816;13.072;2022-11-27T13:32:21;16.85;;;8.52;;
13706;SDS011;6925;47.816;13.072;2022-11-27T13:34:50;20.80;;;9.15;;
13706;SDS011;6925;47.816;13.072;2022-11-27T13:37:25;17.55;;;9.23;;
13706;SDS011;6925;47.816;13.072;2022-11-27T13:39:57;14.07;;;7.60;;
13706;SDS011;6925;47.816;13.072;2022-11-27T13:42:30;15.45;;;7.00;;
13706;SDS011;6925;47.816;13.072;2022-11-27T13:45:01;13.80;;;6.85;;
13706;SDS011;6925;47.816;13.072;2022-11-27T13:47:36;12.15;;;6.93;;
13706;SDS011;6925;47.816;13.072;2022-11-27T13:50:07;10.55;;;6.35;;
13706;SDS011;6925;47.816;13.072;2022-11-27T13:52:36;9.75;;;5.93;;
13706;SDS011;6925;47.816;13.072;2022-11-27T13:55:23;11.93;;;7.35;;
13706;SDS011;6925;47.816;13.072;2022-11-27T13:57:55;11.15;;;6.05;;
13706;SDS011;6925;47.816;13.072;2022-11-27T14:00:30;9.77;;;5.32;;
13706;SDS011;6925;47.816;13.072;2022-11-27T14:03:00;9.60;;;6.00;;
13706;SDS011;6925;47.816;13.072;2022-11-27T14:05:36;10.32;;;5.93;;
13706;SDS011;6925;47.816;13.072;2022-11-27T14:08:14;12.70;;;6.05;;
13706;SDS011;6925;47.816;13.072;2022-11-27T14:10:48;11.35;;;6.47;;
13706;SDS011;6925;47.816;13.072;2022-11-27T14:13:18;11.27;;;6.10;;
13706;SDS011;6925;47.816;13.072;2022-11-27T14:15:55;9.57;;;5.68;;
13706;SDS011;6925;47.816;13.072;2022-11-27T14:18:25;13.02;;;6.68;;
13706;SDS011;6925;47.816;13.072;2022-11-27T14:20:55;11.27;;;6.47;;
13706;SDS011;6925;47.816;13.072;2022-11-27T14:23:28;11.13;;;6.05;;
13706;SDS011;6925;47.816;13.072;2022-11-27T14:26:05;10.35;;;5.70;;
13706;SDS011;6925;47.816;13.072;2022-11-27T14:28:36;10.52;;;5.45;;
13706;SDS011;6925;47.816;13.072;2022-11-27T14:31:17;12.02;;;6.28;;
13706;SDS011;6925;47.816;13.072;2022-11-27T14:33:48;9.82;;;5.88;;
13706;SDS011;6925;47.816;13.072;2022-11-27T14:36:17;11.73;;;6.60;;
13706;SDS011;6925;47.816;13.072;2022-11-27T14:38:47;11.80;;;6.63;;
13706;SDS011;6925;47.816;13.072;2022-11-27T14:41:15;11.68;;;6.72;;
13706;SDS011;6925;47.816;13.072;2022-11-27T14:43:44;10.45;;;6.18;;
13706;SDS011;6925;47.816;13.072;2022-11-27T14:46:13;10.50;;;6.22;;
13706;SDS011;6925;47.816;13.072;2022-11-27T14:48:42;12.90;;;7.07;;
13706;SDS011;6925;47.816;13.072;2022-11-27T14:51:13;11.90;;;6.80;;
13706;SDS011;6925;47.816;13.072;2022-11-27T14:53:41;10.77;;;6.18;;
13706;SDS011;6925;47.816;13.072;2022-11-27T14:56:17;10.50;;;6.38;;
13706;SDS011;6925;47.816;13.072;2022-11-27T14:58:50;11.80;;;6.47;;
13706;SDS011;6925;47.816;13.072;2022-11-27T15:01:22;11.65;;;6.35;;
13706;SDS011;6925;47.816;13.072;2022-11-27T15:03:56;11.68;;;6.65;;
13706;SDS011;6925;47.816;13.072;2022-11-27T15:58:15;7.47;;;4.38;;
13706;SDS011;6925;47.816;13.072;2022-11-27T16:00:43;7.70;;;4.45;;
13706;SDS011;6925;47.816;13.072;2022-11-27T16:03:11;7.95;;;4.75;;
13706;SDS011;6925;47.816;13.072;2022-11-27T16:05:39;7.78;;;4.60;;
13706;SDS011;6925;47.816;13.072;2022-11-27T16:08:08;7.88;;;4.43;;
13706;SDS011;6925;47.816;13.072;2022-11-27T16:14:00;8.93;;;4.63;;
13706;SDS011;6925;47.816;13.072;2022-11-27T16:16:31;13.55;;;7.50;;
13706;SDS011;6925;47.816;13.072;2022-11-27T16:18:59;9.45;;;5.20;;
13706;SDS011;6925;47.816;13.072;2022-11-27T16:21:28;10.70;;;5.72;;
13706;SDS011;6925;47.816;13.072;2022-11-27T16:23:56;9.25;;;5.15;;
13706;SDS011;6925;47.816;13.072;2022-11-27T16:26:23;9.10;;;4.88;;
13706;SDS011;6925;47.816;13.072;2022-11-27T16:31:20;7.15;;;3.92;;
13706;SDS011;6925;47.816;13.072;2022-11-27T16:33:48;7.80;;;4.85;;
13706;SDS011;6925;47.816;13.072;2022-11-27T16:36:25;6.82;;;4.10;;
13706;SDS011;6925;47.816;13.072;2022-11-27T16:39:06;6.95;;;4.18;;
13706;SDS011;6925;47.816;13.072;2022-11-27T16:41:36;10.90;;;6.10;;
13706;SDS011;6925;47.816;13.072;2022-11-27T16:44:07;7.32;;;4.15;;
13706;SDS011;6925;47.816;13.072;2022-11-27T16:46:39;7.60;;;4.43;;
13706;SDS011;6925;47.816;13.072;2022-11-27T16:49:07;7.88;;;4.38;;
13706;SDS011;6925;47.816;13.072;2022-11-27T16:51:35;7.32;;;4.72;;
13706;SDS011;6925;47.816;13.072;2022-11-27T16:54:04;6.38;;;4.22;;
13706;SDS011;6925;47.816;13.072;2022-11-27T16:56:32;8.50;;;4.75;;
13706;SDS011;6925;47.816;13.072;2022-11-27T16:59:00;6.20;;;3.60;;
13706;SDS011;6925;47.816;13.072;2022-11-27T17:01:30;7.97;;;4.50;;
13706;SDS011;6925;47.816;13.072;2022-11-27T17:04:01;6.88;;;3.88;;
13706;SDS011;6925;47.816;13.072;2022-11-27T17:06:33;6.07;;;3.60;;
13706;SDS011;6925;47.816;13.072;2022-11-27T17:09:02;6.60;;;3.60;;
13706;SDS011;6925;47.816;13.072;2022-11-27T17:11:30;5.88;;;3.55;;
13706;SDS011;6925;47.816;13.072;2022-11-27T17:14:00;6.07;;;3.58;;
13706;SDS011;6925;47.816;13.072;2022-11-27T17:16:29;6.20;;;3.70;;
13706;SDS011;6925;47.816;13.072;2022-11-27T17:24:25;7.13;;;3.92;;
13706;SDS011;6925;47.816;13.072;2022-11-27T17:26:53;7.03;;;4.28;;
13706;SDS011;6925;47.816;13.072;2022-11-27T17:29:28;8.38;;;4.20;;
13706;SDS011;6925;47.816;13.072;2022-11-27T17:32:13;6.43;;;3.53;;
13706;SDS011;6925;47.816;13.072;2022-11-27T17:34:54;6.57;;;3.67;;
13706;SDS011;6925;47.816;13.072;2022-11-27T17:43:20;9.07;;;5.38;;
13706;SDS011;6925;47.816;13.072;2022-11-27T17:45:49;7.47;;;4.47;;
13706;SDS011;6925;47.816;13.072;2022-11-27T17:48:17;6.60;;;3.58;;
13706;SDS011;6925;47.816;13.072;2022-11-27T17:50:44;13.38;;;5.57;;
13706;SDS011;6925;47.816;13.072;2022-11-27T17:53:12;10.43;;;4.75;;
13706;SDS011;6925;47.816;13.072;2022-11-27T17:55:40;19.45;;;6.55;;
13706;SDS011;6925;47.816;13.072;2022-11-27T17:58:07;38.25;;;12.20;;
13706;SDS011;6925;47.816;13.072;2022-11-27T18:12:58;48.10;;;12.18;;
13706;SDS011;6925;47.816;13.072;2022-11-27T18:15:40;23.50;;;8.10;;
13706;SDS011;6925;47.816;13.072;2022-11-27T18:18:08;18.33;;;7.80;;
13706;SDS011;6925;47.816;13.072;2022-11-27T18:20:35;9.73;;;4.68;;
13706;SDS011;6925;47.816;13.072;2022-11-27T18:23:03;11.95;;;4.80;;
13706;SDS011;6925;47.816;13.072;2022-11-27T18:25:33;10.77;;;4.80;;